sensor_id;sensor_type;location;lat;lon;timestamp;temperature;humidity
38941;DHT22;43236;47.208;7.518;2022-09-03T00:00:38;20.00;99.90
38941;DHT22;43236;47.208;7.518;2022-09-03T00:03:31;20.00;99.90
38941;DHT22;43236;47.208;7.518;2022-09-03T00:06:23;20.00;99.90
38941;DHT22;43236;47.208;7.518;2022-09-03T00:09:14;20.00;99.90
38941;DHT22;43236;47.208;7.518;2022-09-03T00:12:08;20.00;99.90
38941;DHT22;43236;47.208;7.518;2022-09-03T00:15:00;20.00;99.90
38941;DHT22;43236;47.208;7.518;2022-09-03T00:17:52;20.00;99.90
38941;DHT22;43236;47.208;7.518;2022-09-03T00:20:42;20.00;99.90
38941;DHT22;43236;47.208;7.518;2022-09-03T00:23:30;19.90;99.90
38941;DHT22;43236;47.208;7.518;2022-09-03T00:26:23;19.90;99.90
38941;DHT22;43236;47.208;7.518;2022-09-03T00:29:16;19.90;99.90
38941;DHT22;43236;47.208;7.518;2022-09-03T00:32:10;20.00;99.90
38941;DHT22;43236;47.208;7.518;2022-09-03T00:35:02;20.00;99.90
38941;DHT22;43236;47.208;7.518;2022-09-03T00:37:50;20.00;99.90
38941;DHT22;43236;47.208;7.518;2022-09-03T00:40:48;20.00;99.90
38941;DHT22;43236;47.208;7.518;2022-09-03T00:43:49;20.00;99.90
38941;DHT22;43236;47.208;7.518;2022-09-03T00:46:48;20.00;99.90
38941;DHT22;43236;47.208;7.518;2022-09-03T00:49:48;20.00;99.90
38941;DHT22;43236;47.208;7.518;2022-09-03T00:52:43;20.00;99.90
38941;DHT22;43236;47.208;7.518;2022-09-03T00:55:40;20.00;99.90
38941;DHT22;43236;47.208;7.518;2022-09-03T00:58:51;20.00;99.90
38941;DHT22;43236;47.208;7.518;2022-09-03T01:01:49;20.00;99.90
38941;DHT22;43236;47.208;7.518;2022-09-03T01:04:48;20.00;99.90
38941;DHT22;43236;47.208;7.518;2022-09-03T01:07:42;20.00;99.90
38941;DHT22;43236;47.208;7.518;2022-09-03T01:10:40;19.90;99.90
38941;DHT22;43236;47.208;7.518;2022-09-03T01:13:35;19.90;99.90
38941;DHT22;43236;47.208;7.518;2022-09-03T01:16:33;19.90;99.90
38941;DHT22;43236;47.208;7.518;2022-09-03T01:19:49;19.90;99.90
38941;DHT22;43236;47.208;7.518;2022-09-03T01:26:04;19.90;99.90
38941;DHT22;43236;47.208;7.518;2022-09-03T01:29:03;19.80;99.90
38941;DHT22;43236;47.208;7.518;2022-09-03T01:32:02;19.80;99.90
38941;DHT22;43236;47.208;7.518;2022-09-03T01:34:59;19.80;99.90
38941;DHT22;43236;47.208;7.518;2022-09-03T01:38:00;19.80;99.90
38941;DHT22;43236;47.208;7.518;2022-09-03T01:41:00;19.80;99.90
38941;DHT22;43236;47.208;7.518;2022-09-03T01:44:15;19.80;99.90
38941;DHT22;43236;47.208;7.518;2022-09-03T01:47:13;19.70;99.90
38941;DHT22;43236;47.208;7.518;2022-09-03T01:50:06;19.70;99.90
38941;DHT22;43236;47.208;7.518;2022-09-03T01:53:01;19.70;99.90
38941;DHT22;43236;47.208;7.518;2022-09-03T01:56:01;19.70;99.90
38941;DHT22;43236;47.208;7.518;2022-09-03T01:58:59;19.70;99.90
38941;DHT22;43236;47.208;7.518;2022-09-03T02:01:54;19.70;99.90
38941;DHT22;43236;47.208;7.518;2022-09-03T02:04:56;19.70;99.90
38941;DHT22;43236;47.208;7.518;2022-09-03T02:07:46;19.70;99.90
38941;DHT22;43236;47.208;7.518;2022-09-03T02:10:38;19.70;99.90
38941;DHT22;43236;47.208;7.518;2022-09-03T02:13:28;19.70;99.90
38941;DHT22;43236;47.208;7.518;2022-09-03T02:16:18;19.70;99.90
38941;DHT22;43236;47.208;7.518;2022-09-03T02:19:10;19.70;99.90
38941;DHT22;43236;47.208;7.518;2022-09-03T02:21:58;19.80;99.90
38941;DHT22;43236;47.208;7.518;2022-09-03T02:24:45;19.70;99.90
38941;DHT22;43236;47.208;7.518;2022-09-03T02:27:32;20.20;99.90
38941;DHT22;43236;47.208;7.518;2022-09-03T02:30:20;19.70;99.90
38941;DHT22;43236;47.208;7.518;2022-09-03T02:33:08;19.70;99.90
38941;DHT22;43236;47.208;7.518;2022-09-03T02:35:56;19.70;99.90
38941;DHT22;43236;47.208;7.518;2022-09-03T02:38:44;19.70;99.90
38941;DHT22;43236;47.208;7.518;2022-09-03T02:41:31;19.70;99.90
38941;DHT22;43236;47.208;7.518;2022-09-03T02:44:22;19.70;99.90
38941;DHT22;43236;47.208;7.518;2022-09-03T02:47:11;19.70;99.90
38941;DHT22;43236;47.208;7.518;2022-09-03T02:49:58;19.70;99.90
38941;DHT22;43236;47.208;7.518;2022-09-03T02:52:46;19.70;99.90
38941;DHT22;43236;47.208;7.518;2022-09-03T02:55:33;19.70;99.90
38941;DHT22;43236;47.208;7.518;2022-09-03T02:58:20;19.70;99.90
38941;DHT22;43236;47.208;7.518;2022-09-03T03:01:07;19.70;99.90
38941;DHT22;43236;47.208;7.518;2022-09-03T03:03:56;19.70;99.90
38941;DHT22;43236;47.208;7.518;2022-09-03T03:06:43;19.70;99.90
38941;DHT22;43236;47.208;7.518;2022-09-03T03:09:31;19.70;99.90
38941;DHT22;43236;47.208;7.518;2022-09-03T03:12:19;19.70;99.90
38941;DHT22;43236;47.208;7.518;2022-09-03T03:15:06;19.70;99.90
38941;DHT22;43236;47.208;7.518;2022-09-03T03:17:54;19.70;99.90
38941;DHT22;43236;47.208;7.518;2022-09-03T03:20:42;19.70;99.90
38941;DHT22;43236;47.208;7.518;2022-09-03T03:23:30;19.70;99.90
38941;DHT22;43236;47.208;7.518;2022-09-03T03:26:20;19.80;99.90
38941;DHT22;43236;47.208;7.518;2022-09-03T03:29:14;19.80;99.90
38941;DHT22;43236;47.208;7.518;2022-09-03T03:32:02;19.90;99.90
38941;DHT22;43236;47.208;7.518;2022-09-03T03:34:49;19.80;99.90
38941;DHT22;43236;47.208;7.518;2022-09-03T03:37:36;19.80;99.90
38941;DHT22;43236;47.208;7.518;2022-09-03T03:40:23;19.80;99.90
38941;DHT22;43236;47.208;7.518;2022-09-03T03:43:12;19.80;99.90
38941;DHT22;43236;47.208;7.518;2022-09-03T03:45:59;19.80;99.90
38941;DHT22;43236;47.208;7.518;2022-09-03T03:48:46;19.80;99.90
38941;DHT22;43236;47.208;7.518;2022-09-03T03:51:34;19.80;99.90
38941;DHT22;43236;47.208;7.518;2022-09-03T03:54:22;19.80;99.90
38941;DHT22;43236;47.208;7.518;2022-09-03T03:57:09;19.80;99.90
38941;DHT22;43236;47.208;7.518;2022-09-03T03:59:57;19.80;99.90
38941;DHT22;43236;47.208;7.518;2022-09-03T04:02:44;19.80;99.90
38941;DHT22;43236;47.208;7.518;2022-09-03T04:05:31;19.80;99.90
38941;DHT22;43236;47.208;7.518;2022-09-03T04:08:19;19.80;99.90
38941;DHT22;43236;47.208;7.518;2022-09-03T04:11:08;19.80;99.90
38941;DHT22;43236;47.208;7.518;2022-09-03T04:13:55;19.80;99.90
38941;DHT22;43236;47.208;7.518;2022-09-03T04:16:44;19.80;99.90
38941;DHT22;43236;47.208;7.518;2022-09-03T04:19:31;19.80;99.90
38941;DHT22;43236;47.208;7.518;2022-09-03T04:22:18;19.80;99.90
38941;DHT22;43236;47.208;7.518;2022-09-03T04:25:06;19.80;99.90
38941;DHT22;43236;47.208;7.518;2022-09-03T04:27:53;19.80;99.90
38941;DHT22;43236;47.208;7.518;2022-09-03T04:30:40;19.80;99.90
38941;DHT22;43236;47.208;7.518;2022-09-03T04:33:29;19.80;99.90
38941;DHT22;43236;47.208;7.518;2022-09-03T04:36:18;19.70;99.90
38941;DHT22;43236;47.208;7.518;2022-09-03T04:39:05;19.80;99.90
38941;DHT22;43236;47.208;7.518;2022-09-03T04:41:52;19.80;99.90
38941;DHT22;43236;47.208;7.518;2022-09-03T04:44:39;19.70;99.90
38941;DHT22;43236;47.208;7.518;2022-09-03T04:47:26;19.70;99.90
38941;DHT22;43236;47.208;7.518;2022-09-03T04:50:15;19.70;99.90
38941;DHT22;43236;47.208;7.518;2022-09-03T04:53:03;19.70;99.90
38941;DHT22;43236;47.208;7.518;2022-09-03T04:55:51;19.70;99.90
38941;DHT22;43236;47.208;7.518;2022-09-03T04:58:38;19.70;99.90
38941;DHT22;43236;47.208;7.518;2022-09-03T05:01:27;19.70;99.90
38941;DHT22;43236;47.208;7.518;2022-09-03T05:04:15;19.60;99.90
38941;DHT22;43236;47.208;7.518;2022-09-03T05:07:03;19.60;99.90
38941;DHT22;43236;47.208;7.518;2022-09-03T05:09:51;19.60;99.90
38941;DHT22;43236;47.208;7.518;2022-09-03T05:12:38;19.60;99.90
38941;DHT22;43236;47.208;7.518;2022-09-03T05:15:25;19.60;99.90
38941;DHT22;43236;47.208;7.518;2022-09-03T05:18:12;19.60;99.90
38941;DHT22;43236;47.208;7.518;2022-09-03T05:21:00;19.60;99.90
38941;DHT22;43236;47.208;7.518;2022-09-03T05:23:49;19.70;99.90
38941;DHT22;43236;47.208;7.518;2022-09-03T05:26:38;19.70;99.90
38941;DHT22;43236;47.208;7.518;2022-09-03T05:29:25;19.60;99.90
38941;DHT22;43236;47.208;7.518;2022-09-03T05:32:12;19.60;99.90
38941;DHT22;43236;47.208;7.518;2022-09-03T05:35:01;19.60;99.90
38941;DHT22;43236;47.208;7.518;2022-09-03T05:37:48;19.50;99.90
38941;DHT22;43236;47.208;7.518;2022-09-03T05:40:36;19.50;99.90
38941;DHT22;43236;47.208;7.518;2022-09-03T05:43:24;19.50;99.90
38941;DHT22;43236;47.208;7.518;2022-09-03T05:46:12;19.50;99.90
38941;DHT22;43236;47.208;7.518;2022-09-03T05:49:03;19.40;99.90
38941;DHT22;43236;47.208;7.518;2022-09-03T05:51:50;19.40;99.90
38941;DHT22;43236;47.208;7.518;2022-09-03T05:54:37;19.40;99.90
38941;DHT22;43236;47.208;7.518;2022-09-03T05:57:26;19.40;99.90
38941;DHT22;43236;47.208;7.518;2022-09-03T06:00:14;19.30;99.90
38941;DHT22;43236;47.208;7.518;2022-09-03T06:03:04;19.40;99.90
38941;DHT22;43236;47.208;7.518;2022-09-03T06:05:52;19.40;99.90
38941;DHT22;43236;47.208;7.518;2022-09-03T06:08:40;19.50;99.90
38941;DHT22;43236;47.208;7.518;2022-09-03T06:11:30;19.50;99.90
38941;DHT22;43236;47.208;7.518;2022-09-03T06:14:19;19.50;99.90
38941;DHT22;43236;47.208;7.518;2022-09-03T06:17:06;19.50;99.90
38941;DHT22;43236;47.208;7.518;2022-09-03T06:19:55;19.50;99.90
38941;DHT22;43236;47.208;7.518;2022-09-03T06:22:47;19.50;99.90
38941;DHT22;43236;47.208;7.518;2022-09-03T06:25:37;19.50;99.90
38941;DHT22;43236;47.208;7.518;2022-09-03T06:28:24;19.60;99.90
38941;DHT22;43236;47.208;7.518;2022-09-03T06:31:15;19.70;99.90
38941;DHT22;43236;47.208;7.518;2022-09-03T06:34:02;19.60;99.90
38941;DHT22;43236;47.208;7.518;2022-09-03T06:36:50;19.60;99.90
38941;DHT22;43236;47.208;7.518;2022-09-03T06:39:38;19.60;99.90
38941;DHT22;43236;47.208;7.518;2022-09-03T06:42:25;19.70;99.90
38941;DHT22;43236;47.208;7.518;2022-09-03T06:45:13;19.70;99.90
38941;DHT22;43236;47.208;7.518;2022-09-03T06:48:03;19.70;99.90
38941;DHT22;43236;47.208;7.518;2022-09-03T06:50:54;19.80;99.90
38941;DHT22;43236;47.208;7.518;2022-09-03T06:53:43;19.80;99.90
38941;DHT22;43236;47.208;7.518;2022-09-03T06:56:31;19.80;99.90
38941;DHT22;43236;47.208;7.518;2022-09-03T06:59:18;19.90;99.90
38941;DHT22;43236;47.208;7.518;2022-09-03T07:02:06;19.90;99.90
38941;DHT22;43236;47.208;7.518;2022-09-03T07:04:54;19.90;99.90
38941;DHT22;43236;47.208;7.518;2022-09-03T07:07:41;20.00;99.90
38941;DHT22;43236;47.208;7.518;2022-09-03T07:10:29;20.00;99.90
38941;DHT22;43236;47.208;7.518;2022-09-03T07:13:16;20.10;99.90
38941;DHT22;43236;47.208;7.518;2022-09-03T07:16:07;20.10;99.90
38941;DHT22;43236;47.208;7.518;2022-09-03T07:18:55;20.20;99.90
38941;DHT22;43236;47.208;7.518;2022-09-03T07:21:44;20.30;99.90
38941;DHT22;43236;47.208;7.518;2022-09-03T07:24:31;20.40;99.90
38941;DHT22;43236;47.208;7.518;2022-09-03T07:27:19;20.50;99.90
38941;DHT22;43236;47.208;7.518;2022-09-03T07:30:07;20.60;99.90
38941;DHT22;43236;47.208;7.518;2022-09-03T07:32:55;20.70;99.90
38941;DHT22;43236;47.208;7.518;2022-09-03T07:35:46;20.80;99.90
38941;DHT22;43236;47.208;7.518;2022-09-03T07:38:35;20.90;99.90
38941;DHT22;43236;47.208;7.518;2022-09-03T07:41:23;21.00;99.90
38941;DHT22;43236;47.208;7.518;2022-09-03T07:44:12;21.00;99.90
38941;DHT22;43236;47.208;7.518;2022-09-03T07:47:00;21.00;99.90
38941;DHT22;43236;47.208;7.518;2022-09-03T07:49:47;21.00;99.90
38941;DHT22;43236;47.208;7.518;2022-09-03T07:52:34;21.00;99.90
38941;DHT22;43236;47.208;7.518;2022-09-03T07:55:23;20.90;99.90
38941;DHT22;43236;47.208;7.518;2022-09-03T07:58:10;20.90;99.90
38941;DHT22;43236;47.208;7.518;2022-09-03T08:00:57;20.80;99.90
38941;DHT22;43236;47.208;7.518;2022-09-03T08:03:46;20.70;99.90
38941;DHT22;43236;47.208;7.518;2022-09-03T08:06:34;20.50;99.90
38941;DHT22;43236;47.208;7.518;2022-09-03T08:09:21;20.50;99.90
38941;DHT22;43236;47.208;7.518;2022-09-03T08:12:09;20.40;99.90
38941;DHT22;43236;47.208;7.518;2022-09-03T08:14:56;20.40;99.90
38941;DHT22;43236;47.208;7.518;2022-09-03T08:17:44;20.30;99.90
38941;DHT22;43236;47.208;7.518;2022-09-03T08:20:31;20.30;99.90
38941;DHT22;43236;47.208;7.518;2022-09-03T08:23:18;20.20;99.90
38941;DHT22;43236;47.208;7.518;2022-09-03T08:26:06;20.20;99.90
38941;DHT22;43236;47.208;7.518;2022-09-03T08:28:54;20.20;99.90
38941;DHT22;43236;47.208;7.518;2022-09-03T08:31:41;20.20;99.90
38941;DHT22;43236;47.208;7.518;2022-09-03T08:34:29;20.20;99.90
38941;DHT22;43236;47.208;7.518;2022-09-03T08:37:17;20.20;99.90
38941;DHT22;43236;47.208;7.518;2022-09-03T08:40:04;20.20;99.90
38941;DHT22;43236;47.208;7.518;2022-09-03T08:43:02;20.10;99.90
38941;DHT22;43236;47.208;7.518;2022-09-03T08:45:53;20.10;99.90
38941;DHT22;43236;47.208;7.518;2022-09-03T08:48:41;20.20;99.90
38941;DHT22;43236;47.208;7.518;2022-09-03T08:51:28;20.20;99.90
38941;DHT22;43236;47.208;7.518;2022-09-03T08:54:17;20.20;99.90
38941;DHT22;43236;47.208;7.518;2022-09-03T08:57:06;20.20;99.90
38941;DHT22;43236;47.208;7.518;2022-09-03T08:59:54;20.20;99.90
38941;DHT22;43236;47.208;7.518;2022-09-03T09:02:58;20.20;99.90
38941;DHT22;43236;47.208;7.518;2022-09-03T09:05:51;20.20;99.90
38941;DHT22;43236;47.208;7.518;2022-09-03T09:08:50;20.20;99.90
38941;DHT22;43236;47.208;7.518;2022-09-03T09:11:48;20.20;99.90
38941;DHT22;43236;47.208;7.518;2022-09-03T09:14:39;20.20;99.90
38941;DHT22;43236;47.208;7.518;2022-09-03T09:17:39;20.30;99.90
38941;DHT22;43236;47.208;7.518;2022-09-03T09:20:34;20.20;99.90
38941;DHT22;43236;47.208;7.518;2022-09-03T09:23:23;20.20;99.90
38941;DHT22;43236;47.208;7.518;2022-09-03T09:26:15;20.30;99.90
38941;DHT22;43236;47.208;7.518;2022-09-03T09:29:06;20.30;99.90
38941;DHT22;43236;47.208;7.518;2022-09-03T09:31:55;20.30;99.90
38941;DHT22;43236;47.208;7.518;2022-09-03T09:34:42;20.40;99.90
38941;DHT22;43236;47.208;7.518;2022-09-03T09:37:31;20.40;99.90
38941;DHT22;43236;47.208;7.518;2022-09-03T09:40:28;20.40;99.90
38941;DHT22;43236;47.208;7.518;2022-09-03T09:43:19;20.50;99.90
38941;DHT22;43236;47.208;7.518;2022-09-03T09:46:11;20.50;99.90
38941;DHT22;43236;47.208;7.518;2022-09-03T09:48:58;20.60;99.90
38941;DHT22;43236;47.208;7.518;2022-09-03T09:51:45;20.60;99.90
38941;DHT22;43236;47.208;7.518;2022-09-03T09:54:34;20.70;99.90
38941;DHT22;43236;47.208;7.518;2022-09-03T09:57:22;20.80;99.90
38941;DHT22;43236;47.208;7.518;2022-09-03T10:00:12;20.90;99.90
38941;DHT22;43236;47.208;7.518;2022-09-03T10:02:59;20.90;99.90
38941;DHT22;43236;47.208;7.518;2022-09-03T10:05:58;21.00;99.90
38941;DHT22;43236;47.208;7.518;2022-09-03T10:08:46;21.10;99.90
38941;DHT22;43236;47.208;7.518;2022-09-03T10:11:36;21.10;99.90
38941;DHT22;43236;47.208;7.518;2022-09-03T10:14:27;21.20;99.90
38941;DHT22;43236;47.208;7.518;2022-09-03T10:17:21;21.20;99.90
38941;DHT22;43236;47.208;7.518;2022-09-03T10:20:11;21.20;99.90
38941;DHT22;43236;47.208;7.518;2022-09-03T10:23:27;21.30;99.90
38941;DHT22;43236;47.208;7.518;2022-09-03T10:26:18;21.30;99.90
38941;DHT22;43236;47.208;7.518;2022-09-03T10:29:18;21.30;99.90
38941;DHT22;43236;47.208;7.518;2022-09-03T10:32:17;21.30;99.90
38941;DHT22;43236;47.208;7.518;2022-09-03T10:35:15;21.30;99.90
38941;DHT22;43236;47.208;7.518;2022-09-03T10:38:09;21.30;99.90
38941;DHT22;43236;47.208;7.518;2022-09-03T10:41:12;21.40;99.90
38941;DHT22;43236;47.208;7.518;2022-09-03T10:44:27;21.50;99.90
38941;DHT22;43236;47.208;7.518;2022-09-03T10:47:31;21.60;99.90
38941;DHT22;43236;47.208;7.518;2022-09-03T10:50:23;21.70;99.90
38941;DHT22;43236;47.208;7.518;2022-09-03T10:53:20;21.90;99.90
38941;DHT22;43236;47.208;7.518;2022-09-03T10:56:14;21.90;99.90
38941;DHT22;43236;47.208;7.518;2022-09-03T10:59:15;21.90;99.90
38941;DHT22;43236;47.208;7.518;2022-09-03T11:02:22;22.00;99.90
38941;DHT22;43236;47.208;7.518;2022-09-03T11:05:18;22.10;99.90
38941;DHT22;43236;47.208;7.518;2022-09-03T11:08:11;22.20;99.90
38941;DHT22;43236;47.208;7.518;2022-09-03T11:11:08;22.20;99.90
38941;DHT22;43236;47.208;7.518;2022-09-03T11:14:01;22.30;99.90
38941;DHT22;43236;47.208;7.518;2022-09-03T11:16:53;22.40;99.90
38941;DHT22;43236;47.208;7.518;2022-09-03T11:19:49;22.40;99.90
38941;DHT22;43236;47.208;7.518;2022-09-03T11:22:37;22.40;99.90
38941;DHT22;43236;47.208;7.518;2022-09-03T11:25:29;22.40;99.90
38941;DHT22;43236;47.208;7.518;2022-09-03T11:28:26;22.40;99.90
38941;DHT22;43236;47.208;7.518;2022-09-03T11:31:22;22.30;99.90
38941;DHT22;43236;47.208;7.518;2022-09-03T11:34:14;22.50;99.90
38941;DHT22;43236;47.208;7.518;2022-09-03T11:37:17;22.40;99.90
38941;DHT22;43236;47.208;7.518;2022-09-03T11:40:10;22.50;99.90
38941;DHT22;43236;47.208;7.518;2022-09-03T11:43:06;22.50;99.90
38941;DHT22;43236;47.208;7.518;2022-09-03T11:46:02;22.50;99.90
38941;DHT22;43236;47.208;7.518;2022-09-03T11:48:51;22.50;99.90
38941;DHT22;43236;47.208;7.518;2022-09-03T11:51:40;22.60;99.90
38941;DHT22;43236;47.208;7.518;2022-09-03T11:54:41;22.60;99.90
38941;DHT22;43236;47.208;7.518;2022-09-03T11:57:31;22.70;99.90
38941;DHT22;43236;47.208;7.518;2022-09-03T12:00:18;22.60;99.90
38941;DHT22;43236;47.208;7.518;2022-09-03T12:03:13;22.60;99.90
38941;DHT22;43236;47.208;7.518;2022-09-03T12:09:27;22.40;99.90
38941;DHT22;43236;47.208;7.518;2022-09-03T12:12:31;22.30;99.90
38941;DHT22;43236;47.208;7.518;2022-09-03T12:15:39;22.20;99.90
38941;DHT22;43236;47.208;7.518;2022-09-03T12:18:29;22.20;99.90
38941;DHT22;43236;47.208;7.518;2022-09-03T12:21:18;22.20;99.90
38941;DHT22;43236;47.208;7.518;2022-09-03T12:24:07;22.20;99.90
38941;DHT22;43236;47.208;7.518;2022-09-03T12:26:57;22.30;99.90
38941;DHT22;43236;47.208;7.518;2022-09-03T12:29:54;22.30;99.90
38941;DHT22;43236;47.208;7.518;2022-09-03T12:32:44;22.40;99.90
38941;DHT22;43236;47.208;7.518;2022-09-03T12:35:32;22.40;99.90
38941;DHT22;43236;47.208;7.518;2022-09-03T12:38:22;22.40;99.90
38941;DHT22;43236;47.208;7.518;2022-09-03T12:41:23;22.50;99.90
38941;DHT22;43236;47.208;7.518;2022-09-03T12:44:12;22.50;99.90
38941;DHT22;43236;47.208;7.518;2022-09-03T12:47:02;22.50;99.90
38941;DHT22;43236;47.208;7.518;2022-09-03T12:49:51;22.50;99.90
38941;DHT22;43236;47.208;7.518;2022-09-03T12:52:41;22.50;99.90
38941;DHT22;43236;47.208;7.518;2022-09-03T12:55:34;22.40;99.90
38941;DHT22;43236;47.208;7.518;2022-09-03T12:58:24;22.40;99.90
38941;DHT22;43236;47.208;7.518;2022-09-03T13:01:15;22.50;99.90
38941;DHT22;43236;47.208;7.518;2022-09-03T13:04:09;22.60;99.90
38941;DHT22;43236;47.208;7.518;2022-09-03T13:07:03;22.60;99.90
38941;DHT22;43236;47.208;7.518;2022-09-03T13:09:59;22.70;99.90
38941;DHT22;43236;47.208;7.518;2022-09-03T13:12:48;22.70;99.90
38941;DHT22;43236;47.208;7.518;2022-09-03T13:15:35;22.70;99.90
38941;DHT22;43236;47.208;7.518;2022-09-03T13:18:24;22.80;99.90
38941;DHT22;43236;47.208;7.518;2022-09-03T13:21:28;22.80;99.90
38941;DHT22;43236;47.208;7.518;2022-09-03T13:24:48;22.80;99.90
38941;DHT22;43236;47.208;7.518;2022-09-03T13:27:44;22.80;99.90
38941;DHT22;43236;47.208;7.518;2022-09-03T13:30:37;22.80;99.90
38941;DHT22;43236;47.208;7.518;2022-09-03T13:33:33;22.70;99.90
38941;DHT22;43236;47.208;7.518;2022-09-03T13:36:28;22.60;99.90
38941;DHT22;43236;47.208;7.518;2022-09-03T13:39:21;22.60;99.90
38941;DHT22;43236;47.208;7.518;2022-09-03T13:42:13;22.60;99.90
38941;DHT22;43236;47.208;7.518;2022-09-03T13:45:10;22.70;99.90
38941;DHT22;43236;47.208;7.518;2022-09-03T13:48:07;22.90;99.90
38941;DHT22;43236;47.208;7.518;2022-09-03T13:51:16;23.10;99.90
38941;DHT22;43236;47.208;7.518;2022-09-03T13:54:14;23.10;99.90
38941;DHT22;43236;47.208;7.518;2022-09-03T13:57:06;23.20;99.90
38941;DHT22;43236;47.208;7.518;2022-09-03T13:59:58;23.30;99.90
38941;DHT22;43236;47.208;7.518;2022-09-03T14:02:51;23.30;99.90
38941;DHT22;43236;47.208;7.518;2022-09-03T14:05:49;23.30;99.90
38941;DHT22;43236;47.208;7.518;2022-09-03T14:08:48;23.40;99.90
38941;DHT22;43236;47.208;7.518;2022-09-03T14:11:52;23.50;99.90
38941;DHT22;43236;47.208;7.518;2022-09-03T14:14:52;23.50;99.90
38941;DHT22;43236;47.208;7.518;2022-09-03T14:17:44;23.50;99.90
38941;DHT22;43236;47.208;7.518;2022-09-03T14:20:37;23.50;99.90
38941;DHT22;43236;47.208;7.518;2022-09-03T14:23:33;23.60;99.90
38941;DHT22;43236;47.208;7.518;2022-09-03T14:26:26;23.60;99.50
38941;DHT22;43236;47.208;7.518;2022-09-03T14:29:25;23.70;99.90
38941;DHT22;43236;47.208;7.518;2022-09-03T14:32:20;23.70;99.90
38941;DHT22;43236;47.208;7.518;2022-09-03T14:38:49;23.90;99.90
38941;DHT22;43236;47.208;7.518;2022-09-03T14:42:02;23.80;98.20
38941;DHT22;43236;47.208;7.518;2022-09-03T14:45:22;23.80;99.10
38941;DHT22;43236;47.208;7.518;2022-09-03T14:48:34;23.70;98.10
38941;DHT22;43236;47.208;7.518;2022-09-03T14:51:33;23.60;99.30
38941;DHT22;43236;47.208;7.518;2022-09-03T14:54:51;23.50;98.40
38941;DHT22;43236;47.208;7.518;2022-09-03T14:57:57;23.40;98.80
38941;DHT22;43236;47.208;7.518;2022-09-03T15:00:56;23.40;99.60
38941;DHT22;43236;47.208;7.518;2022-09-03T15:07:21;23.40;99.00
38941;DHT22;43236;47.208;7.518;2022-09-03T15:10:17;23.40;97.70
38941;DHT22;43236;47.208;7.518;2022-09-03T15:13:09;23.50;97.50
38941;DHT22;43236;47.208;7.518;2022-09-03T15:16:07;23.50;97.80
38941;DHT22;43236;47.208;7.518;2022-09-03T15:19:09;23.60;98.20
38941;DHT22;43236;47.208;7.518;2022-09-03T15:22:07;23.60;97.90
38941;DHT22;43236;47.208;7.518;2022-09-03T15:25:06;23.60;97.70
38941;DHT22;43236;47.208;7.518;2022-09-03T15:28:03;23.60;98.90
38941;DHT22;43236;47.208;7.518;2022-09-03T15:31:09;23.50;97.50
38941;DHT22;43236;47.208;7.518;2022-09-03T15:34:11;23.40;98.40
38941;DHT22;43236;47.208;7.518;2022-09-03T15:37:09;23.40;98.60
38941;DHT22;43236;47.208;7.518;2022-09-03T15:40:02;23.30;99.60
38941;DHT22;43236;47.208;7.518;2022-09-03T15:42:55;23.30;99.90
38941;DHT22;43236;47.208;7.518;2022-09-03T15:45:51;23.30;99.70
38941;DHT22;43236;47.208;7.518;2022-09-03T15:48:48;23.30;99.10
38941;DHT22;43236;47.208;7.518;2022-09-03T15:51:41;23.30;99.90
38941;DHT22;43236;47.208;7.518;2022-09-03T15:54:40;23.30;99.90
38941;DHT22;43236;47.208;7.518;2022-09-03T15:57:34;23.30;99.90
38941;DHT22;43236;47.208;7.518;2022-09-03T16:00:24;23.30;99.90
38941;DHT22;43236;47.208;7.518;2022-09-03T16:03:12;23.30;99.90
38941;DHT22;43236;47.208;7.518;2022-09-03T16:06:07;23.30;99.60
38941;DHT22;43236;47.208;7.518;2022-09-03T16:09:08;23.30;99.90
38941;DHT22;43236;47.208;7.518;2022-09-03T16:12:13;23.30;99.90
38941;DHT22;43236;47.208;7.518;2022-09-03T16:15:08;23.30;99.80
38941;DHT22;43236;47.208;7.518;2022-09-03T16:18:01;23.30;99.90
38941;DHT22;43236;47.208;7.518;2022-09-03T16:20:55;23.30;99.70
38941;DHT22;43236;47.208;7.518;2022-09-03T16:23:52;23.30;99.90
38941;DHT22;43236;47.208;7.518;2022-09-03T16:26:48;23.30;99.60
38941;DHT22;43236;47.208;7.518;2022-09-03T16:29:37;23.40;99.20
38941;DHT22;43236;47.208;7.518;2022-09-03T16:32:34;23.40;98.70
38941;DHT22;43236;47.208;7.518;2022-09-03T16:35:31;23.50;98.40
38941;DHT22;43236;47.208;7.518;2022-09-03T16:38:28;23.60;98.70
38941;DHT22;43236;47.208;7.518;2022-09-03T16:41:22;23.70;98.80
38941;DHT22;43236;47.208;7.518;2022-09-03T16:44:18;23.60;98.60
38941;DHT22;43236;47.208;7.518;2022-09-03T16:47:16;23.60;97.90
38941;DHT22;43236;47.208;7.518;2022-09-03T16:50:14;23.60;97.90
38941;DHT22;43236;47.208;7.518;2022-09-03T16:53:12;23.60;97.90
38941;DHT22;43236;47.208;7.518;2022-09-03T16:56:15;23.60;98.20
38941;DHT22;43236;47.208;7.518;2022-09-03T16:59:15;23.70;97.70
38941;DHT22;43236;47.208;7.518;2022-09-03T17:02:21;23.70;97.90
38941;DHT22;43236;47.208;7.518;2022-09-03T17:05:23;23.60;98.20
38941;DHT22;43236;47.208;7.518;2022-09-03T17:08:25;23.60;98.50
38941;DHT22;43236;47.208;7.518;2022-09-03T17:11:28;23.50;98.40
38941;DHT22;43236;47.208;7.518;2022-09-03T17:14:38;23.40;98.60
38941;DHT22;43236;47.208;7.518;2022-09-03T17:17:42;23.40;98.70
38941;DHT22;43236;47.208;7.518;2022-09-03T17:20:44;23.30;99.10
38941;DHT22;43236;47.208;7.518;2022-09-03T17:23:59;23.20;99.30
38941;DHT22;43236;47.208;7.518;2022-09-03T17:26:51;23.10;99.60
38941;DHT22;43236;47.208;7.518;2022-09-03T17:29:54;23.00;99.50
38941;DHT22;43236;47.208;7.518;2022-09-03T17:33:04;23.00;99.50
38941;DHT22;43236;47.208;7.518;2022-09-03T17:36:00;22.90;99.90
38941;DHT22;43236;47.208;7.518;2022-09-03T17:39:19;22.90;99.90
38941;DHT22;43236;47.208;7.518;2022-09-03T17:42:19;22.90;99.90
38941;DHT22;43236;47.208;7.518;2022-09-03T17:45:14;22.80;99.90
38941;DHT22;43236;47.208;7.518;2022-09-03T17:48:19;22.80;99.90
38941;DHT22;43236;47.208;7.518;2022-09-03T17:51:08;22.70;99.90
38941;DHT22;43236;47.208;7.518;2022-09-03T17:54:04;22.70;99.90
38941;DHT22;43236;47.208;7.518;2022-09-03T17:56:58;22.70;99.90
38941;DHT22;43236;47.208;7.518;2022-09-03T17:59:53;22.50;99.90
38941;DHT22;43236;47.208;7.518;2022-09-03T18:02:50;22.50;99.90
38941;DHT22;43236;47.208;7.518;2022-09-03T18:05:45;22.40;99.90
38941;DHT22;43236;47.208;7.518;2022-09-03T18:08:39;22.40;99.90
38941;DHT22;43236;47.208;7.518;2022-09-03T18:11:32;22.30;99.90
38941;DHT22;43236;47.208;7.518;2022-09-03T18:14:25;22.20;99.90
38941;DHT22;43236;47.208;7.518;2022-09-03T18:17:24;22.20;99.90
38941;DHT22;43236;47.208;7.518;2022-09-03T18:20:14;22.10;99.90
38941;DHT22;43236;47.208;7.518;2022-09-03T18:23:27;22.00;99.90
38941;DHT22;43236;47.208;7.518;2022-09-03T18:26:36;22.00;99.90